createdAt,value
2023-04-25T00:00:44.444Z,243.45
2023-04-25T00:01:44.622Z,243.94
2023-04-25T00:02:44.530Z,242.74
2023-04-25T00:03:44.648Z,242.49
2023-04-25T00:04:44.783Z,240.72
2023-04-25T00:05:44.577Z,241.55
2023-04-25T00:06:44.503Z,242.48
2023-04-25T00:07:44.532Z,242.14
2023-04-25T00:08:44.416Z,242.58
2023-04-25T00:09:44.414Z,241.11
2023-04-25T00:10:44.439Z,241.88
2023-04-25T00:11:44.352Z,241.86
2023-04-25T00:12:44.374Z,242.02
2023-04-25T00:13:44.385Z,241.53
2023-04-25T00:14:44.351Z,242.51
2023-04-25T00:15:44.385Z,241.05
2023-04-25T00:16:44.341Z,241.41
2023-04-25T00:17:44.387Z,241.85
2023-04-25T00:18:44.322Z,241.62
2023-04-25T00:19:44.387Z,240.23
2023-04-25T00:20:44.674Z,240.94
2023-04-25T00:21:44.343Z,240.78
2023-04-25T00:22:44.293Z,241.54
2023-04-25T00:23:44.304Z,239.84
2023-04-25T00:24:44.270Z,239.08
2023-04-25T00:25:44.301Z,239.90
2023-04-25T00:26:44.268Z,241.71
2023-04-25T00:27:44.281Z,239.97
2023-04-25T00:28:44.261Z,241.80
2023-04-25T00:29:44.273Z,238.70
2023-04-25T00:30:44.246Z,240.84
2023-04-25T00:31:44.234Z,239.82
2023-04-25T00:32:44.281Z,239.80
2023-04-25T00:33:44.207Z,240.20
2023-04-25T00:34:44.199Z,240.80
2023-04-25T00:35:44.179Z,240.71
2023-04-25T00:36:44.187Z,241.62
2023-04-25T00:37:44.232Z,240.29
2023-04-25T00:38:44.177Z,239.16
2023-04-25T00:39:44.209Z,239.61
2023-04-25T00:40:44.158Z,239.73
2023-04-25T00:41:44.148Z,239.43
2023-04-25T00:42:44.154Z,239.85
2023-04-25T00:43:44.123Z,239.99
2023-04-25T00:44:44.123Z,240.06
2023-04-25T00:45:44.164Z,239.34
2023-04-25T00:46:44.133Z,239.63
2023-04-25T00:47:44.206Z,239.31
2023-04-25T00:48:44.110Z,239.79
2023-04-25T00:49:44.126Z,240.38
2023-04-25T00:50:44.210Z,240.19
2023-04-25T00:51:44.077Z,239.06
2023-04-25T00:52:44.072Z,239.12
2023-04-25T00:53:44.728Z,238.87
2023-04-25T00:54:44.089Z,237.99
2023-04-25T00:55:44.043Z,238.49
2023-04-25T00:56:44.050Z,239.89
2023-04-25T00:57:44.030Z,238.70
2023-04-25T00:58:44.142Z,238.11
2023-04-25T00:59:44.005Z,240.25
2023-04-25T01:00:44.096Z,237.49
2023-04-25T01:01:45.153Z,239.40
2023-04-25T01:02:44.290Z,238.96
2023-04-25T01:03:44.164Z,238.50
2023-04-25T01:04:43.993Z,238.34
2023-04-25T01:05:44.013Z,236.30
2023-04-25T01:06:43.982Z,238.38
2023-04-25T01:07:43.952Z,238.43
2023-04-25T01:08:43.951Z,239.25
2023-04-25T01:09:44.198Z,238.02
2023-04-25T01:10:43.955Z,237.75
2023-04-25T01:11:43.919Z,238.87
2023-04-25T01:12:43.960Z,239.00
2023-04-25T01:13:43.922Z,237.61
2023-04-25T01:14:43.953Z,238.17
2023-04-25T01:15:43.908Z,239.24
2023-04-25T01:16:43.963Z,238.06
2023-04-25T01:17:43.979Z,237.71
2023-04-25T01:18:43.929Z,237.97
2023-04-25T01:19:45.669Z,237.05
2023-04-25T01:20:43.951Z,237.63
2023-04-25T01:21:43.967Z,239.26
2023-04-25T01:22:44.022Z,236.88
2023-04-25T01:23:44.007Z,236.87
2023-04-25T01:24:44.013Z,238.82
2023-04-25T01:25:43.978Z,236.67
2023-04-25T01:26:44.010Z,237.36
2023-04-25T01:27:44.049Z,236.84
2023-04-25T01:28:44.040Z,236.66
2023-04-25T01:29:44.028Z,236.31
2023-04-25T01:30:44.119Z,237.63
2023-04-25T01:31:44.119Z,235.63
2023-04-25T01:32:44.172Z,235.94
2023-04-25T01:33:44.142Z,236.68
2023-04-25T01:34:44.142Z,236.23
2023-04-25T01:35:44.268Z,236.27
2023-04-25T01:36:44.172Z,237.26
2023-04-25T01:37:44.223Z,236.01
2023-04-25T01:38:44.213Z,236.46
2023-04-25T01:39:44.244Z,237.27
2023-04-25T01:40:44.269Z,234.31
2023-04-25T01:41:44.284Z,235.28
2023-04-25T01:42:44.290Z,233.78
2023-04-25T01:43:44.311Z,235.49
2023-04-25T01:44:44.324Z,236.41
2023-04-25T01:45:44.378Z,235.75
2023-04-25T01:46:44.380Z,233.93
2023-04-25T01:47:44.426Z,234.49
2023-04-25T01:48:44.397Z,234.70
2023-04-25T01:49:44.417Z,235.31
2023-04-25T01:50:44.422Z,235.21
2023-04-25T01:51:44.466Z,233.59
2023-04-25T01:52:44.435Z,235.02
2023-04-25T01:53:44.623Z,235.36
2023-04-25T01:54:44.463Z,234.40
2023-04-25T01:55:45.210Z,233.83
2023-04-25T01:56:44.570Z,234.84
2023-04-25T01:57:44.529Z,233.09
2023-04-25T01:58:44.549Z,233.02
2023-04-25T01:59:44.566Z,234.31
2023-04-25T02:00:44.573Z,233.70
2023-04-25T02:01:44.646Z,234.23
2023-04-25T02:02:44.758Z,233.07
2023-04-25T02:03:44.710Z,233.85
2023-04-25T02:04:44.848Z,233.42
2023-04-25T02:05:44.593Z,232.57
2023-04-25T02:06:44.629Z,232.15
2023-04-25T02:07:44.666Z,233.29
2023-04-25T02:08:44.641Z,232.98
2023-04-25T02:09:44.672Z,232.51
2023-04-25T02:10:44.665Z,232.68
2023-04-25T02:11:44.696Z,233.32
2023-04-25T02:12:44.691Z,233.07
2023-04-25T02:13:44.706Z,233.33
2023-04-25T02:14:44.728Z,231.58
2023-04-25T02:15:44.751Z,232.29
2023-04-25T02:16:45.251Z,231.87
2023-04-25T02:17:44.839Z,231.81
2023-04-25T02:18:44.772Z,232.32
2023-04-25T02:19:44.780Z,233.52
2023-04-25T02:20:44.796Z,231.13
2023-04-25T02:21:44.828Z,231.15
2023-04-25T02:22:44.825Z,231.97
2023-04-25T02:23:44.838Z,233.19
2023-04-25T02:24:44.818Z,231.62
2023-04-25T02:25:44.828Z,230.66
2023-04-25T02:26:44.853Z,231.92
2023-04-25T02:27:44.884Z,230.11
2023-04-25T02:28:44.899Z,231.07
2023-04-25T02:29:44.856Z,230.51
2023-04-25T02:30:44.857Z,230.39
2023-04-25T02:31:44.956Z,231.44
2023-04-25T02:32:44.954Z,232.24
2023-04-25T02:33:44.929Z,231.31
2023-04-25T02:34:44.879Z,231.70
2023-04-25T02:35:44.882Z,231.38
2023-04-25T02:36:44.888Z,230.28
2023-04-25T02:37:44.907Z,230.35
2023-04-25T02:38:44.925Z,230.88
2023-04-25T02:39:44.924Z,231.39
2023-04-25T02:40:44.915Z,229.82
2023-04-25T02:41:44.921Z,230.73
2023-04-25T02:42:44.928Z,230.77
2023-04-25T02:43:44.936Z,230.34
2023-04-25T02:44:44.970Z,230.63
2023-04-25T02:45:44.956Z,231.92
2023-04-25T02:46:45.013Z,231.16
2023-04-25T02:47:44.976Z,230.09
2023-04-25T02:48:44.968Z,230.24
2023-04-25T02:49:44.972Z,229.62
2023-04-25T02:50:44.947Z,230.61
2023-04-25T02:51:44.970Z,231.44
2023-04-25T02:52:44.984Z,229.58
2023-04-25T02:53:44.996Z,231.05
2023-04-25T02:54:45.005Z,229.31
2023-04-25T02:55:44.982Z,228.60
2023-04-25T02:56:45.052Z,230.11
2023-04-25T02:57:45.025Z,227.67
2023-04-25T02:58:45.054Z,228.89
2023-04-25T02:59:45.253Z,230.33
2023-04-25T03:00:45.117Z,227.19
2023-04-25T03:01:45.123Z,229.28
2023-04-25T03:02:45.154Z,228.24
2023-04-25T03:03:45.202Z,228.17
2023-04-25T03:04:45.215Z,228.71
2023-04-25T03:05:45.230Z,228.55
2023-04-25T03:06:45.205Z,227.04
2023-04-25T03:07:45.195Z,227.41
2023-04-25T03:08:45.226Z,229.27
2023-04-25T03:09:45.269Z,227.47
2023-04-25T03:10:45.266Z,228.18
2023-04-25T03:11:45.272Z,227.69
2023-04-25T03:12:45.298Z,227.52
2023-04-25T03:13:45.349Z,227.71
2023-04-25T03:14:45.340Z,226.49
2023-04-25T03:15:45.305Z,226.71
2023-04-25T03:16:45.429Z,227.28
2023-04-25T03:17:45.355Z,225.42
2023-04-25T03:18:45.313Z,227.02
2023-04-25T03:19:45.340Z,227.64
2023-04-25T03:20:45.351Z,227.32
2023-04-25T03:21:45.379Z,226.83
2023-04-25T03:22:45.337Z,225.74
2023-04-25T03:23:45.368Z,225.99
2023-04-25T03:24:45.365Z,226.85
2023-04-25T03:25:45.390Z,226.47
2023-04-25T03:26:45.403Z,225.17
2023-04-25T03:27:45.427Z,224.12
2023-04-25T03:28:45.446Z,225.81
2023-04-25T03:29:45.434Z,224.54
2023-04-25T03:30:45.540Z,224.12
2023-04-25T03:31:45.549Z,225.38
2023-04-25T03:32:45.498Z,222.79
2023-04-25T03:33:45.506Z,222.31
2023-04-25T03:34:45.505Z,222.06
2023-04-25T03:35:45.526Z,221.96
2023-04-25T03:36:45.546Z,222.18
2023-04-25T03:37:45.556Z,222.90
2023-04-25T03:38:45.549Z,222.40
2023-04-25T03:39:45.601Z,222.82
2023-04-25T03:40:45.626Z,223.13
2023-04-25T03:41:45.632Z,220.16
2023-04-25T03:42:45.641Z,222.43
2023-04-25T03:43:45.629Z,222.31
2023-04-25T03:44:45.646Z,222.33
2023-04-25T03:45:45.698Z,222.72
2023-04-25T03:46:45.667Z,220.50
2023-04-25T03:47:45.699Z,221.81
2023-04-25T03:48:45.679Z,219.71
2023-04-25T03:49:45.707Z,219.12
2023-04-25T03:50:45.711Z,220.99
2023-04-25T03:51:45.751Z,220.14
2023-04-25T03:52:45.752Z,221.03
2023-04-25T03:53:45.752Z,220.19
2023-04-25T03:54:45.785Z,220.88
2023-04-25T03:55:45.775Z,220.34
2023-04-25T03:56:45.827Z,220.86
2023-04-25T03:57:45.796Z,219.88
2023-04-25T03:58:45.799Z,220.67
2023-04-25T03:59:45.818Z,220.58
2023-04-25T04:00:45.854Z,220.97
2023-04-25T04:01:45.865Z,221.12
2023-04-25T04:02:46.020Z,219.97
2023-04-25T04:03:46.098Z,219.17
2023-04-25T04:04:46.085Z,220.72
2023-04-25T04:05:45.957Z,220.42
2023-04-25T04:06:45.914Z,220.90
2023-04-25T04:07:45.928Z,219.88
2023-04-25T04:08:45.886Z,218.19
2023-04-25T04:09:45.921Z,218.94
2023-04-25T04:10:45.922Z,219.63
2023-04-25T04:11:45.950Z,218.46
2023-04-25T04:12:45.951Z,220.50
2023-04-25T04:13:45.986Z,218.74
2023-04-25T04:14:46.018Z,218.47
2023-04-25T04:15:46.096Z,219.93
2023-04-25T04:16:46.036Z,219.27
2023-04-25T04:17:46.153Z,220.14
2023-04-25T04:18:46.082Z,220.47
2023-04-25T04:19:46.103Z,218.34
2023-04-25T04:20:46.110Z,219.14
2023-04-25T04:21:46.150Z,219.18
2023-04-25T04:22:46.141Z,218.73
2023-04-25T04:23:46.168Z,219.25
2023-04-25T04:24:46.204Z,218.18
2023-04-25T04:25:46.198Z,218.61
2023-04-25T04:26:46.238Z,217.48
2023-04-25T04:27:46.756Z,218.97
2023-04-25T04:28:46.254Z,218.03
2023-04-25T04:29:46.295Z,218.93
2023-04-25T04:30:46.294Z,218.13
2023-04-25T04:31:46.297Z,218.22
2023-04-25T04:32:47.439Z,220.13
2023-04-25T04:33:46.469Z,220.33
2023-04-25T04:34:46.465Z,219.38
2023-04-25T04:35:46.502Z,220.23
2023-04-25T04:36:46.541Z,219.21
2023-04-25T04:37:46.580Z,220.54
2023-04-25T04:38:46.566Z,221.17
2023-04-25T04:39:46.622Z,220.90
2023-04-25T04:40:46.578Z,219.16
2023-04-25T04:41:46.657Z,220.19
2023-04-25T04:42:46.622Z,219.76
2023-04-25T04:43:46.638Z,218.06
2023-04-25T04:44:46.710Z,218.86
2023-04-25T04:45:46.659Z,218.27
2023-04-25T04:46:46.707Z,219.00
2023-04-25T04:47:46.771Z,219.77
2023-04-25T04:48:46.724Z,220.65
2023-04-25T04:49:46.773Z,219.26
2023-04-25T04:50:46.823Z,219.86
2023-04-25T04:51:46.809Z,222.19
2023-04-25T04:52:46.798Z,221.07
2023-04-25T04:53:46.826Z,219.63
2023-04-25T04:54:46.861Z,219.19
2023-04-25T04:55:46.871Z,216.02
2023-04-25T04:56:46.880Z,216.57
2023-04-25T04:57:46.906Z,211.79
2023-04-25T04:58:46.917Z,212.45
2023-04-25T04:59:46.928Z,207.24
2023-04-25T05:00:46.944Z,204.37
2023-04-25T05:01:46.961Z,204.92
2023-04-25T05:02:47.117Z,202.24
2023-04-25T05:03:47.131Z,199.74
2023-04-25T05:04:47.065Z,199.35
2023-04-25T05:05:47.003Z,198.34
2023-04-25T05:06:48.961Z,196.80
2023-04-25T05:07:47.034Z,196.18
2023-04-25T05:08:47.053Z,197.11
2023-04-25T05:09:47.069Z,194.82
2023-04-25T05:10:47.098Z,193.44
2023-04-25T05:11:47.111Z,191.59
2023-04-25T05:12:47.129Z,191.69
2023-04-25T05:13:47.146Z,188.80
2023-04-25T05:14:47.193Z,187.79
2023-04-25T05:15:47.184Z,186.37
2023-04-25T05:16:47.228Z,185.10
2023-04-25T05:17:47.295Z,180.26
2023-04-25T05:18:47.259Z,176.82
2023-04-25T05:19:47.249Z,173.43
2023-04-25T05:20:47.289Z,171.16
2023-04-25T05:21:47.283Z,169.71
2023-04-25T05:22:47.323Z,165.89
2023-04-25T05:23:47.317Z,165.53
2023-04-25T05:24:47.380Z,160.77
2023-04-25T05:25:47.423Z,162.81
2023-04-25T05:26:48.310Z,163.67
2023-04-25T05:27:47.471Z,168.12
2023-04-25T05:28:47.472Z,174.00
2023-04-25T05:29:47.446Z,175.11
2023-04-25T05:30:47.763Z,175.78
2023-04-25T05:31:47.509Z,175.98
2023-04-25T05:32:48.303Z,184.77
2023-04-25T05:33:54.257Z,216.91
2023-04-25T05:34:47.580Z,216.98
2023-04-25T05:35:47.549Z,217.58
2023-04-25T05:36:47.543Z,199.15
2023-04-25T05:37:47.754Z,188.80
2023-04-25T05:38:47.514Z,181.54
2023-04-25T05:39:47.534Z,189.06
2023-04-25T05:40:48.265Z,193.65
2023-04-25T05:41:47.512Z,192.27
2023-04-25T05:42:47.794Z,191.48
2023-04-25T05:43:47.524Z,198.63
2023-04-25T05:44:47.498Z,198.04
2023-04-25T05:45:50.388Z,206.14
2023-04-25T05:46:47.437Z,206.40
2023-04-25T05:47:47.769Z,209.85
2023-04-25T05:48:47.437Z,218.43
2023-04-25T05:49:47.419Z,224.65
2023-04-25T05:50:47.775Z,221.06
2023-04-25T05:51:47.414Z,204.86
2023-04-25T05:52:47.444Z,202.65
2023-04-25T05:53:47.586Z,201.03
2023-04-25T05:54:47.387Z,197.68
2023-04-25T05:55:47.410Z,200.12
2023-04-25T05:56:47.373Z,201.67
2023-04-25T05:57:47.729Z,204.86
2023-04-25T05:58:47.448Z,207.91
2023-04-25T05:59:47.378Z,218.28
2023-04-25T06:00:47.402Z,223.68
2023-04-25T06:01:47.541Z,231.96
2023-04-25T06:02:47.447Z,237.07
2023-04-25T06:03:47.629Z,243.02
2023-04-25T06:04:47.478Z,245.71
2023-04-25T06:05:47.377Z,248.78
2023-04-25T06:06:47.328Z,245.40
2023-04-25T06:07:47.308Z,248.69
2023-04-25T06:08:47.352Z,240.76
2023-04-25T06:09:47.306Z,250.52
2023-04-25T06:10:47.287Z,251.29
2023-04-25T06:11:47.315Z,243.69
2023-04-25T06:12:47.303Z,239.14
2023-04-25T06:13:47.289Z,245.62
2023-04-25T06:14:47.272Z,245.50
2023-04-25T06:15:47.303Z,235.95
2023-04-25T06:16:47.749Z,245.19
2023-04-25T06:17:47.285Z,245.64
2023-04-25T06:18:47.222Z,243.81
2023-04-25T06:19:47.216Z,236.40
2023-04-25T06:20:47.225Z,238.52
2023-04-25T06:21:47.252Z,236.83
2023-04-25T06:22:47.224Z,239.47
2023-04-25T06:23:47.210Z,236.05
2023-04-25T06:24:47.180Z,243.51
2023-04-25T06:25:47.271Z,244.52
2023-04-25T06:26:47.283Z,245.98
2023-04-25T06:27:47.160Z,241.07
2023-04-25T06:28:47.174Z,242.04
2023-04-25T06:29:47.168Z,236.86
2023-04-25T06:30:47.162Z,235.59
2023-04-25T06:31:47.180Z,200.02
2023-04-25T06:32:47.187Z,198.28
2023-04-25T06:33:47.121Z,183.71
2023-04-25T06:34:47.109Z,182.89
2023-04-25T06:35:47.111Z,182.73
2023-04-25T06:36:47.104Z,169.10
2023-04-25T06:37:47.319Z,174.53
2023-04-25T06:40:06.512Z,25.00
2023-04-25T06:41:06.291Z,25.00
2023-04-25T06:42:06.304Z,25.00
2023-04-25T06:43:06.479Z,25.00
2023-04-25T06:44:06.256Z,25.00
2023-04-25T06:45:06.247Z,25.52
2023-04-25T06:46:06.277Z,27.74
2023-04-25T06:47:06.355Z,35.40
2023-04-25T06:48:06.342Z,47.10
2023-04-25T06:49:06.230Z,55.82
2023-04-25T06:50:06.260Z,63.75
2023-04-25T06:51:06.240Z,68.23
2023-04-25T06:52:06.248Z,67.97
2023-04-25T06:53:06.198Z,68.53
2023-04-25T06:54:06.172Z,69.06
2023-04-25T06:55:06.208Z,66.81
2023-04-25T06:56:06.513Z,65.92
2023-04-25T06:57:06.187Z,62.33
2023-04-25T06:58:06.194Z,63.22
2023-04-25T06:59:06.146Z,73.47
2023-04-25T07:00:08.981Z,73.33
2023-04-25T07:01:06.238Z,73.76
2023-04-25T07:02:06.115Z,75.03
2023-04-25T07:03:06.310Z,76.27
2023-04-25T07:04:06.336Z,71.80
2023-04-25T07:05:06.190Z,73.91
2023-04-25T07:06:06.117Z,77.12
2023-04-25T07:07:06.246Z,78.44
2023-04-25T07:08:06.165Z,81.65
2023-04-25T07:09:06.096Z,84.80
2023-04-25T07:10:06.090Z,90.19
2023-04-25T07:11:06.082Z,88.16
2023-04-25T07:12:06.068Z,95.35
2023-04-25T07:13:06.989Z,100.24
2023-04-25T07:14:06.070Z,101.03
2023-04-25T07:15:06.110Z,96.59
2023-04-25T07:16:06.577Z,100.29
2023-04-25T07:17:06.078Z,106.26
2023-04-25T07:18:08.024Z,108.61
2023-04-25T07:19:06.040Z,112.63
2023-04-25T07:20:06.018Z,107.14
2023-04-25T07:21:06.045Z,110.31
2023-04-25T07:22:06.024Z,111.54
2023-04-25T07:23:06.022Z,120.54
2023-04-25T07:24:05.995Z,121.76
2023-04-25T07:25:06.021Z,123.29
2023-04-25T07:26:06.050Z,121.35
2023-04-25T07:27:05.980Z,123.45
2023-04-25T07:28:05.989Z,117.66
2023-04-25T07:29:05.972Z,120.05
2023-04-25T07:30:06.020Z,115.51
2023-04-25T07:31:06.028Z,107.20
2023-04-25T07:32:05.988Z,114.75
2023-04-25T07:33:06.536Z,124.17
2023-04-25T07:34:05.989Z,151.66
2023-04-25T07:35:05.999Z,148.91
2023-04-25T07:36:06.519Z,142.24
2023-04-25T07:37:06.495Z,173.57
2023-04-25T07:38:05.993Z,172.84
2023-04-25T07:39:05.946Z,171.46
2023-04-25T07:40:05.891Z,153.82
2023-04-25T07:41:06.004Z,124.83
2023-04-25T07:42:05.894Z,126.23
2023-04-25T07:43:05.860Z,131.33
2023-04-25T07:44:05.868Z,133.89
2023-04-25T07:45:05.870Z,127.26
2023-04-25T07:46:05.983Z,126.52
2023-04-25T07:47:05.929Z,123.93
2023-04-25T07:48:06.070Z,114.09
2023-04-25T07:49:05.851Z,118.33
2023-04-25T07:50:05.834Z,118.34
2023-04-25T07:51:05.816Z,96.45
2023-04-25T07:52:05.825Z,93.89
2023-04-25T07:53:06.053Z,96.58
2023-04-25T07:54:07.542Z,97.18
2023-04-25T07:55:06.585Z,93.68
2023-04-25T07:56:06.519Z,114.85
2023-04-25T07:57:05.863Z,105.45
2023-04-25T07:58:06.580Z,128.71
2023-04-25T07:59:05.852Z,142.14
2023-04-25T08:00:05.838Z,137.55
2023-04-25T08:01:05.977Z,142.96
2023-04-25T08:02:05.897Z,134.42
2023-04-25T08:03:06.733Z,145.35
2023-04-25T08:04:06.084Z,142.96
2023-04-25T08:05:06.040Z,152.68
2023-04-25T08:06:08.176Z,140.98
2023-04-25T08:07:06.796Z,145.40
2023-04-25T08:08:05.841Z,146.78
2023-04-25T08:09:06.040Z,144.01
2023-04-25T08:10:06.057Z,136.33
2023-04-25T08:11:06.074Z,143.84
2023-04-25T08:12:05.805Z,153.20
2023-04-25T08:13:05.817Z,170.92
2023-04-25T08:14:05.789Z,163.92
2023-04-25T08:15:05.883Z,252.15
2023-04-25T08:16:06.593Z,200.51
2023-04-25T08:17:05.915Z,173.85
2023-04-25T08:18:05.811Z,186.99
2023-04-25T08:19:06.017Z,210.50
2023-04-25T08:20:05.760Z,199.09
2023-04-25T08:21:06.047Z,185.47
2023-04-25T08:22:05.739Z,209.73
2023-04-25T08:23:05.728Z,239.26
2023-04-25T08:24:05.907Z,227.83
2023-04-25T08:25:05.696Z,221.13
2023-04-25T08:26:05.756Z,225.87
2023-04-25T08:27:05.711Z,216.52
2023-04-25T08:28:05.720Z,200.22
2023-04-25T08:29:06.062Z,192.40
2023-04-25T08:30:05.756Z,193.48
2023-04-25T08:31:05.731Z,218.43
2023-04-25T08:32:06.551Z,234.36
2023-04-25T08:33:05.695Z,245.37
2023-04-25T08:34:05.685Z,245.90
2023-04-25T08:35:05.651Z,239.00
2023-04-25T08:36:05.739Z,244.54
2023-04-25T08:37:05.653Z,234.51
2023-04-25T08:38:05.641Z,167.26
2023-04-25T08:39:06.024Z,170.40
2023-04-25T08:40:06.557Z,173.51
2023-04-25T08:41:06.545Z,177.87
2023-04-25T08:42:05.732Z,177.61
2023-04-25T08:43:08.518Z,185.15
2023-04-25T08:44:06.549Z,158.06
2023-04-25T08:46:06.594Z,134.77
2023-04-25T08:47:05.713Z,106.30
2023-04-25T08:48:05.567Z,91.82
2023-04-25T08:49:06.636Z,90.33
2023-04-25T08:50:05.553Z,92.28
2023-04-25T08:51:06.028Z,83.69
2023-04-25T08:52:05.542Z,81.47
2023-04-25T08:53:05.554Z,67.50
2023-04-25T08:54:10.398Z,79.48
2023-04-25T08:55:06.618Z,80.13
2023-04-25T08:56:05.578Z,80.09
2023-04-25T08:57:06.652Z,73.14
2023-04-25T08:58:07.551Z,66.23
2023-04-25T08:59:06.065Z,68.52
2023-04-25T09:00:05.549Z,67.93
2023-04-25T09:01:05.598Z,75.21
2023-04-25T09:02:05.601Z,73.18
2023-04-25T09:03:05.716Z,63.01
2023-04-25T09:04:05.772Z,72.89
2023-04-25T09:05:06.538Z,69.77
2023-04-25T09:06:05.544Z,75.32
2023-04-25T09:07:05.553Z,59.07
2023-04-25T09:08:05.562Z,82.06
2023-04-25T09:09:06.093Z,79.30
2023-04-25T09:10:05.536Z,100.36
2023-04-25T09:11:05.564Z,85.43
2023-04-25T09:12:05.569Z,81.18
2023-04-25T09:13:05.567Z,75.04
2023-04-25T09:14:05.639Z,80.23
2023-04-25T09:15:05.642Z,67.75
2023-04-25T09:16:05.567Z,74.06
2023-04-25T09:17:05.894Z,81.61
2023-04-25T09:18:05.660Z,78.18
2023-04-25T09:19:05.619Z,71.04
2023-04-25T09:20:05.583Z,72.78
2023-04-25T09:21:12.581Z,64.84
2023-04-25T09:22:06.669Z,65.16
2023-04-25T09:23:05.576Z,67.54
2023-04-25T09:24:05.684Z,74.65
2023-04-25T09:25:05.581Z,68.69
2023-04-25T09:26:05.546Z,44.53
2023-04-25T09:27:05.589Z,30.53
2023-04-25T09:28:05.595Z,33.74
2023-04-25T09:29:05.551Z,32.62
2023-04-25T09:30:05.570Z,37.84
2023-04-25T09:31:06.036Z,58.51
2023-04-25T09:32:06.131Z,61.89
2023-04-25T09:33:05.661Z,64.76
2023-04-25T09:34:07.066Z,63.71
2023-04-25T09:35:06.343Z,67.30
2023-04-25T09:36:06.067Z,74.39
2023-04-25T09:37:05.541Z,83.23
2023-04-25T09:38:06.100Z,99.34
2023-04-25T09:39:05.612Z,104.85
2023-04-25T09:40:06.109Z,111.73
2023-04-25T09:41:06.940Z,103.05
2023-04-25T09:42:05.581Z,96.26
2023-04-25T09:43:05.628Z,104.76
2023-04-25T09:44:05.465Z,106.56
2023-04-25T09:45:05.452Z,113.03
2023-04-25T09:46:06.229Z,130.31
2023-04-25T09:47:07.156Z,137.50
2023-04-25T09:48:05.766Z,142.41
2023-04-25T09:49:06.130Z,155.56
2023-04-25T09:50:05.650Z,130.93
2023-04-25T09:51:05.650Z,112.31
2023-04-25T09:52:06.229Z,92.31
2023-04-25T09:53:05.655Z,84.70
2023-04-25T09:54:05.668Z,83.55
2023-04-25T09:55:05.733Z,72.14
2023-04-25T09:56:05.672Z,76.09
2023-04-25T09:57:06.077Z,82.08
2023-04-25T09:58:05.685Z,112.30
2023-04-25T09:59:05.743Z,125.11
2023-04-25T10:00:05.684Z,108.60
2023-04-25T10:01:05.676Z,121.45
2023-04-25T10:02:05.711Z,130.73
2023-04-25T10:03:05.711Z,35.15
2023-04-25T10:04:06.172Z,25.74
2023-04-25T10:05:05.783Z,24.15
2023-04-25T10:06:05.699Z,21.15
2023-04-25T10:07:06.060Z,26.69
2023-04-25T10:08:05.965Z,23.21
2023-04-25T10:09:06.722Z,25.00
2023-04-25T10:10:05.814Z,25.00
2023-04-25T10:11:05.771Z,24.06
2023-04-25T10:12:05.870Z,29.60
2023-04-25T10:13:05.786Z,33.60
2023-04-25T10:14:05.751Z,27.36
2023-04-25T10:15:06.168Z,25.00
2023-04-25T10:16:05.997Z,30.47
2023-04-25T10:17:05.777Z,34.15
2023-04-25T10:18:05.820Z,37.31
2023-04-25T10:19:05.765Z,44.42
2023-04-25T10:20:07.572Z,55.70
2023-04-25T10:21:05.823Z,59.59
2023-04-25T10:22:07.561Z,65.89
2023-04-25T10:23:05.848Z,59.32
2023-04-25T10:24:05.881Z,67.93
2023-04-25T10:25:05.886Z,87.13
2023-04-25T10:26:06.614Z,101.28
2023-04-25T10:27:06.064Z,99.05
2023-04-25T10:28:06.648Z,98.71
2023-04-25T10:29:05.963Z,116.57
2023-04-25T10:30:05.969Z,125.42
2023-04-25T10:31:06.047Z,132.84
2023-04-25T10:32:06.066Z,144.68
2023-04-25T10:33:05.983Z,161.15
2023-04-25T10:34:06.141Z,156.08
2023-04-25T10:35:06.072Z,115.99
2023-04-25T10:36:06.075Z,111.58
2023-04-25T10:37:06.177Z,112.29
2023-04-25T10:38:06.218Z,129.99
2023-04-25T10:39:06.216Z,130.62
2023-04-25T10:40:06.211Z,129.67
2023-04-25T10:41:06.239Z,124.06
2023-04-25T10:42:06.565Z,132.24
2023-04-25T10:43:07.077Z,133.40
2023-04-25T10:44:06.226Z,125.83
2023-04-25T10:45:06.302Z,124.00
2023-04-25T10:46:06.376Z,119.08
2023-04-25T10:47:06.467Z,119.81
2023-04-25T10:48:06.427Z,124.32
2023-04-25T10:49:06.437Z,128.57
2023-04-25T10:50:06.567Z,129.78
2023-04-25T10:51:06.482Z,123.21
2023-04-25T10:52:06.552Z,120.75
2023-04-25T10:53:06.548Z,113.76
2023-04-25T10:54:06.670Z,110.63
2023-04-25T10:55:06.634Z,101.68
2023-04-25T10:56:08.201Z,99.64
2023-04-25T10:57:06.747Z,90.67
2023-04-25T10:58:06.727Z,80.77
2023-04-25T10:59:06.749Z,85.87
2023-04-25T11:00:06.762Z,90.66
2023-04-25T11:01:06.776Z,91.31
2023-04-25T11:02:06.930Z,98.69
2023-04-25T11:03:07.025Z,114.18
2023-04-25T11:04:07.237Z,108.99
2023-04-25T11:05:06.878Z,113.61
2023-04-25T11:06:06.836Z,127.23
2023-04-25T11:07:08.017Z,147.42
2023-04-25T11:08:08.140Z,152.01
2023-04-25T11:09:15.484Z,142.89
2023-04-25T11:10:07.582Z,142.93
2023-04-25T11:11:07.134Z,110.99
2023-04-25T11:12:07.616Z,105.15
2023-04-25T11:13:07.171Z,101.05
2023-04-25T11:14:07.154Z,93.33
2023-04-25T11:15:07.620Z,85.37
2023-04-25T11:16:12.593Z,78.01
2023-04-25T11:17:08.670Z,78.32
2023-04-25T11:18:08.211Z,85.55
2023-04-25T11:19:07.291Z,92.93
2023-04-25T11:20:07.106Z,111.36
2023-04-25T11:21:07.125Z,150.38
2023-04-25T11:22:07.137Z,150.05
2023-04-25T11:23:07.098Z,146.75
2023-04-25T11:24:07.118Z,143.35
2023-04-25T11:25:07.206Z,136.81
2023-04-25T11:26:07.257Z,135.21
2023-04-25T11:27:08.153Z,128.51
2023-04-25T11:28:08.134Z,133.89
2023-04-25T11:29:08.120Z,133.93
2023-04-25T11:30:07.484Z,133.85
2023-04-25T11:31:07.544Z,137.62
2023-04-25T11:32:09.183Z,145.18
2023-04-25T11:33:07.719Z,144.51
2023-04-25T11:34:07.732Z,145.27
2023-04-25T11:35:07.768Z,148.28
2023-04-25T11:36:07.750Z,143.48
2023-04-25T11:37:07.771Z,137.27
2023-04-25T11:38:07.840Z,141.99
2023-04-25T11:39:07.788Z,144.66
2023-04-25T11:40:07.828Z,137.62
2023-04-25T11:41:07.840Z,133.33
2023-04-25T11:42:08.897Z,130.91
2023-04-25T11:43:08.816Z,122.01
2023-04-25T11:44:07.811Z,110.60
2023-04-25T11:45:08.191Z,92.50
2023-04-25T11:46:07.831Z,84.15
2023-04-25T11:47:07.804Z,84.47
2023-04-25T11:48:07.840Z,77.98
2023-04-25T11:49:07.790Z,69.38
2023-04-25T11:50:07.766Z,72.90
2023-04-25T11:51:07.812Z,60.38
2023-04-25T11:52:07.778Z,44.28
2023-04-25T11:53:07.753Z,25.00
2023-04-25T11:54:07.780Z,23.76
2023-04-25T11:55:08.984Z,25.00
2023-04-25T11:56:07.924Z,21.36
2023-04-25T11:57:07.956Z,26.56
2023-04-25T11:58:08.165Z,19.69
2023-04-25T11:59:08.261Z,31.70
2023-04-25T12:00:08.110Z,29.20
2023-04-25T12:01:08.172Z,25.00
2023-04-25T12:02:08.198Z,26.74
2023-04-25T12:03:08.342Z,29.34
2023-04-25T12:04:08.336Z,26.01
2023-04-25T12:05:29.383Z,24.89
2023-04-25T12:06:09.413Z,21.03
2023-04-25T12:07:08.281Z,8.72
2023-04-25T12:08:08.274Z,8.30
2023-04-25T12:09:08.249Z,5.70
2023-04-25T12:10:08.633Z,2.17
2023-04-25T12:11:08.356Z,14.83
2023-04-25T12:12:08.220Z,24.96
2023-04-25T12:13:08.229Z,16.81
2023-04-25T12:14:08.269Z,21.95
2023-04-25T12:15:08.324Z,25.45
2023-04-25T12:16:08.476Z,22.77
2023-04-25T12:17:08.385Z,25.16
2023-04-25T12:18:08.535Z,42.60
2023-04-25T12:19:08.482Z,44.02
2023-04-25T12:20:08.737Z,60.60
2023-04-25T12:21:08.539Z,84.41
2023-04-25T12:22:08.523Z,74.82
2023-04-25T12:23:08.642Z,76.38
2023-04-25T12:24:08.543Z,84.88
2023-04-25T12:25:08.529Z,82.99
2023-04-25T12:26:08.545Z,88.60
2023-04-25T12:27:08.549Z,89.72
2023-04-25T12:28:08.578Z,86.92
2023-04-25T12:29:08.583Z,87.96
2023-04-25T12:30:08.926Z,81.39
2023-04-25T12:31:08.711Z,44.53
2023-04-25T12:32:08.703Z,45.50
2023-04-25T12:33:08.759Z,50.61
2023-04-25T12:34:08.747Z,56.22
2023-04-25T12:35:08.717Z,59.16
2023-04-25T12:36:08.777Z,63.57
2023-04-25T12:37:08.724Z,62.64